createdAt,value
2024-02-29T00:02:13.583Z,7.30
2024-02-29T00:04:42.626Z,7.30
2024-02-29T00:07:11.661Z,7.30
2024-02-29T00:09:40.877Z,7.30
2024-02-29T00:12:09.888Z,7.30
2024-02-29T00:14:43.071Z,7.30
2024-02-29T00:17:12.297Z,7.30
2024-02-29T00:19:41.156Z,7.30
2024-02-29T00:22:10.548Z,7.30
2024-02-29T00:24:39.449Z,7.20
2024-02-29T00:27:08.804Z,7.30
2024-02-29T00:29:39.701Z,7.30
2024-02-29T00:32:10.151Z,7.30
2024-02-29T00:34:39.211Z,7.30
2024-02-29T00:37:08.309Z,7.30
2024-02-29T00:39:37.352Z,7.30
2024-02-29T00:42:06.318Z,7.20
2024-02-29T00:44:35.273Z,7.30
2024-02-29T00:47:06.246Z,7.40
2024-02-29T00:49:37.275Z,7.30
2024-02-29T00:52:06.599Z,7.40
2024-02-29T00:54:35.517Z,7.30
2024-02-29T00:57:04.853Z,7.30
2024-02-29T00:59:33.724Z,7.30
2024-02-29T01:02:02.591Z,7.20
2024-02-29T01:04:31.538Z,7.30
2024-02-29T01:07:01.869Z,7.20
2024-02-29T01:09:32.209Z,7.20
2024-02-29T01:12:01.179Z,7.20
2024-02-29T01:14:30.081Z,7.20
2024-02-29T01:16:58.927Z,7.30
2024-02-29T01:19:28.012Z,7.20
2024-02-29T01:21:56.964Z,7.20
2024-02-29T01:24:27.352Z,7.30
2024-02-29T01:26:56.219Z,7.20
2024-02-29T01:29:25.186Z,7.20
2024-02-29T01:31:54.002Z,7.20
2024-02-29T01:34:22.896Z,7.20
2024-02-29T01:36:51.739Z,7.20
2024-02-29T01:39:20.573Z,7.20
2024-02-29T01:41:51.078Z,7.20
2024-02-29T01:44:20.284Z,7.10
2024-02-29T01:46:49.207Z,7.10
2024-02-29T01:49:19.218Z,7.10
2024-02-29T01:51:49.335Z,7.10
2024-02-29T01:54:18.637Z,7.10
2024-02-29T01:56:47.657Z,7.10
2024-02-29T01:59:18.946Z,7.10
2024-02-29T02:01:48.214Z,7.10
2024-02-29T02:04:17.916Z,7.20
2024-02-29T02:06:48.054Z,7.30
2024-02-29T02:09:16.992Z,7.30
2024-02-29T02:11:45.954Z,7.20
2024-02-29T02:14:14.795Z,7.20
2024-02-29T02:16:45.364Z,7.20
2024-02-29T02:19:13.847Z,7.20
2024-02-29T02:21:44.695Z,7.20
2024-02-29T02:24:13.566Z,7.10
2024-02-29T02:26:42.402Z,7.20
2024-02-29T02:29:11.214Z,7.20
2024-02-29T02:31:41.381Z,7.20
2024-02-29T02:34:10.361Z,7.10
2024-02-29T02:36:39.323Z,7.10
2024-02-29T02:39:09.648Z,7.10
2024-02-29T02:41:38.491Z,7.10
2024-02-29T02:44:07.411Z,7.10
2024-02-29T02:46:36.524Z,7.10
2024-02-29T02:49:05.557Z,7.20
2024-02-29T02:51:34.442Z,7.20
2024-02-29T02:54:03.284Z,7.10
2024-02-29T02:56:33.508Z,7.10
2024-02-29T02:59:02.395Z,7.10
2024-02-29T03:01:31.301Z,7.20
2024-02-29T03:04:00.289Z,7.20
2024-02-29T03:06:29.154Z,7.10
2024-02-29T03:08:58.162Z,7.10
2024-02-29T03:11:27.031Z,7.20
2024-02-29T03:13:57.346Z,7.10
2024-02-29T03:16:27.325Z,7.10
2024-02-29T03:18:57.001Z,7.10
2024-02-29T03:21:25.848Z,7.20
2024-02-29T03:23:54.750Z,7.30
2024-02-29T03:26:23.667Z,7.20
2024-02-29T03:28:52.501Z,7.30
2024-02-29T03:31:22.802Z,7.30
2024-02-29T03:33:51.702Z,7.30
2024-02-29T03:36:20.556Z,7.30
2024-02-29T03:38:49.688Z,7.20
2024-02-29T03:41:18.715Z,7.20
2024-02-29T03:43:47.615Z,7.20
2024-02-29T03:46:16.489Z,7.30
2024-02-29T03:48:46.866Z,7.20
2024-02-29T03:51:18.029Z,7.20
2024-02-29T03:53:46.937Z,7.30
2024-02-29T03:56:15.844Z,7.20
2024-02-29T03:58:44.826Z,7.20
2024-02-29T04:01:13.780Z,7.10
2024-02-29T04:03:42.892Z,7.10
2024-02-29T04:06:13.214Z,7.10
2024-02-29T04:08:42.132Z,7.10
2024-02-29T04:11:11.220Z,7.00
2024-02-29T04:13:40.356Z,7.00
2024-02-29T04:16:09.577Z,7.00
2024-02-29T04:18:38.448Z,7.00
2024-02-29T04:21:07.445Z,7.10
2024-02-29T04:23:37.872Z,7.10
2024-02-29T04:26:06.982Z,7.10
2024-02-29T04:28:35.819Z,7.20
2024-02-29T04:31:07.121Z,7.20
2024-02-29T04:33:36.046Z,7.10
2024-02-29T04:36:05.189Z,7.00
2024-02-29T04:38:34.059Z,7.10
2024-02-29T04:41:04.686Z,7.10
2024-02-29T04:43:33.693Z,7.10
2024-02-29T04:46:02.899Z,7.20
2024-02-29T04:48:31.775Z,7.30
2024-02-29T04:51:00.595Z,7.10
2024-02-29T04:53:29.408Z,7.10
2024-02-29T04:55:58.540Z,7.10
2024-02-29T04:58:28.976Z,7.10
2024-02-29T05:00:59.193Z,7.10
2024-02-29T05:03:28.104Z,7.20
2024-02-29T05:05:56.885Z,7.20
2024-02-29T05:08:25.824Z,7.20
2024-02-29T05:10:54.923Z,7.00
2024-02-29T05:13:23.841Z,7.00
2024-02-29T05:15:54.195Z,7.00
2024-02-29T05:18:23.122Z,7.00
2024-02-29T05:20:52.730Z,7.00
2024-02-29T05:23:21.559Z,7.00
2024-02-29T05:25:50.377Z,7.10
2024-02-29T05:28:19.313Z,7.00
2024-02-29T05:30:48.241Z,7.00
2024-02-29T05:33:18.633Z,7.00
2024-02-29T05:35:52.171Z,6.90
2024-02-29T05:38:21.337Z,7.00
2024-02-29T05:40:50.593Z,6.90
2024-02-29T05:43:19.513Z,7.00
2024-02-29T05:45:48.476Z,7.00
2024-02-29T05:48:19.296Z,7.00
2024-02-29T05:50:48.399Z,7.10
2024-02-29T05:53:17.491Z,7.10
2024-02-29T05:55:46.358Z,7.10
2024-02-29T05:58:15.407Z,7.10
2024-02-29T06:00:44.524Z,7.10
2024-02-29T06:03:13.512Z,7.10
2024-02-29T06:05:44.146Z,7.10
2024-02-29T06:08:16.990Z,7.10
2024-02-29T06:10:48.447Z,7.30
2024-02-29T06:13:17.872Z,7.20
2024-02-29T06:15:47.112Z,7.30
2024-02-29T06:18:16.466Z,7.30
2024-02-29T06:20:47.038Z,7.30
2024-02-29T06:23:16.009Z,7.40
2024-02-29T06:25:45.997Z,7.50
2024-02-29T06:28:16.365Z,7.50
2024-02-29T06:30:45.603Z,7.50
2024-02-29T06:33:15.376Z,7.70
2024-02-29T06:35:46.428Z,7.60
2024-02-29T06:38:16.437Z,7.60
2024-02-29T06:40:45.630Z,7.70
2024-02-29T06:43:14.854Z,7.70
2024-02-29T06:45:49.625Z,7.80
2024-02-29T06:48:20.482Z,7.80
2024-02-29T06:50:51.162Z,7.80
2024-02-29T06:53:20.397Z,7.80
2024-02-29T06:55:49.493Z,7.90
2024-02-29T06:58:18.700Z,7.90
2024-02-29T07:00:48.182Z,7.90
2024-02-29T07:03:17.196Z,7.90
2024-02-29T07:05:47.007Z,8.00
2024-02-29T07:08:17.262Z,8.10
2024-02-29T07:10:46.319Z,8.20
2024-02-29T07:13:15.415Z,8.20
2024-02-29T07:15:44.498Z,8.20
2024-02-29T07:18:13.546Z,8.20
2024-02-29T07:20:42.710Z,8.30
2024-02-29T07:23:13.597Z,8.30
2024-02-29T07:25:44.050Z,8.30
2024-02-29T07:28:13.153Z,8.40
2024-02-29T07:30:42.132Z,8.30
2024-02-29T07:33:11.084Z,8.20
2024-02-29T07:35:40.325Z,8.30
2024-02-29T07:38:09.138Z,8.30
2024-02-29T07:40:37.963Z,8.30
2024-02-29T07:43:10.292Z,8.40
2024-02-29T07:45:41.478Z,8.40
2024-02-29T07:48:11.339Z,8.50
2024-02-29T07:50:40.644Z,8.50
2024-02-29T07:53:09.828Z,8.50
2024-02-29T07:55:38.976Z,8.50
2024-02-29T07:58:09.577Z,8.50
2024-02-29T08:00:39.717Z,8.60
2024-02-29T08:03:08.773Z,8.70
2024-02-29T08:05:39.672Z,8.60
2024-02-29T08:08:12.710Z,8.60
2024-02-29T08:10:41.980Z,8.60
2024-02-29T08:13:12.450Z,8.60
2024-02-29T08:15:41.681Z,8.70
2024-02-29T08:18:10.782Z,8.80
2024-02-29T08:20:39.920Z,8.80
2024-02-29T08:23:09.008Z,8.80
2024-02-29T08:25:38.503Z,8.90
2024-02-29T08:28:08.024Z,8.90
2024-02-29T08:30:38.403Z,9.00
2024-02-29T08:33:07.768Z,8.90
2024-02-29T08:35:37.224Z,8.90
2024-02-29T08:38:06.269Z,9.00
2024-02-29T08:40:35.269Z,9.00
2024-02-29T08:43:04.381Z,9.00
2024-02-29T08:45:33.364Z,9.10
2024-02-29T08:48:03.899Z,9.10
2024-02-29T08:50:32.801Z,9.10
2024-02-29T08:53:01.630Z,9.20
2024-02-29T08:55:30.744Z,9.10
2024-02-29T08:58:36.434Z,9.10
2024-02-29T09:01:05.717Z,9.10
2024-02-29T09:03:36.177Z,9.20
2024-02-29T09:06:05.619Z,9.20
2024-02-29T09:08:34.411Z,9.20
2024-02-29T09:11:04.042Z,9.20
2024-02-29T09:13:35.829Z,9.20
2024-02-29T09:16:05.377Z,9.20
2024-02-29T09:18:35.957Z,9.20
2024-02-29T09:21:05.053Z,9.20
2024-02-29T09:23:34.167Z,9.10
2024-02-29T09:26:04.333Z,9.10
2024-02-29T09:28:33.223Z,9.10
2024-02-29T09:31:02.108Z,9.10
2024-02-29T09:33:31.684Z,9.10
2024-02-29T09:36:02.091Z,9.20
2024-02-29T09:38:31.026Z,9.10
2024-02-29T09:41:07.294Z,9.10
2024-02-29T09:43:48.508Z,9.20
2024-02-29T09:46:17.589Z,9.20
2024-02-29T09:48:47.986Z,9.20
2024-02-29T09:51:20.536Z,9.30
2024-02-29T09:53:52.218Z,9.30
2024-02-29T09:56:24.624Z,9.30
2024-02-29T09:58:54.412Z,9.20
2024-02-29T10:01:24.750Z,9.20
2024-02-29T10:03:53.922Z,9.30
2024-02-29T10:06:24.229Z,9.30
2024-02-29T10:08:53.557Z,9.30
2024-02-29T10:11:22.696Z,9.30
2024-02-29T10:13:52.773Z,9.40
2024-02-29T10:16:22.737Z,9.50
2024-02-29T10:18:52.512Z,9.50
2024-02-29T10:21:21.320Z,9.70
2024-02-29T10:23:55.981Z,9.50
2024-02-29T10:26:32.070Z,9.60
2024-02-29T10:29:05.894Z,9.50
2024-02-29T10:31:36.228Z,9.60
2024-02-29T10:34:11.486Z,9.70
2024-02-29T10:36:41.329Z,9.70
2024-02-29T10:39:11.875Z,9.70
2024-02-29T10:41:43.624Z,9.70
2024-02-29T10:44:55.055Z,9.80
2024-02-29T10:47:25.961Z,9.80
2024-02-29T10:50:02.828Z,9.90
2024-02-29T10:52:40.207Z,9.90
2024-02-29T10:55:20.917Z,9.90
2024-02-29T10:57:59.410Z,9.90
2024-02-29T11:00:28.459Z,10.00
2024-02-29T11:02:58.469Z,10.10
2024-02-29T11:05:30.637Z,10.20
2024-02-29T11:08:12.716Z,10.20
2024-02-29T11:10:43.450Z,10.20
2024-02-29T11:13:29.132Z,10.30
2024-02-29T11:16:11.326Z,10.40
2024-02-29T11:18:45.067Z,10.40
2024-02-29T11:21:13.999Z,10.40
2024-02-29T11:23:43.078Z,10.50
2024-02-29T11:26:13.552Z,10.50
2024-02-29T11:28:44.004Z,10.60
2024-02-29T11:31:18.917Z,10.60
2024-02-29T11:33:48.973Z,10.50
2024-02-29T11:36:18.243Z,10.50
2024-02-29T11:38:47.122Z,10.50
2024-02-29T11:41:24.821Z,10.40
2024-02-29T11:43:54.257Z,10.50
2024-02-29T11:46:23.265Z,10.60
2024-02-29T11:48:57.071Z,10.50
2024-02-29T11:51:37.642Z,10.50
2024-02-29T11:54:06.875Z,10.50
2024-02-29T11:56:38.069Z,10.40
2024-02-29T11:59:10.672Z,10.50
2024-02-29T12:01:40.093Z,10.50
2024-02-29T12:04:09.218Z,10.50
2024-02-29T12:06:41.121Z,10.50
2024-02-29T12:09:13.974Z,10.50
2024-02-29T12:11:46.441Z,10.30
2024-02-29T12:14:15.903Z,10.60
2024-02-29T12:16:45.538Z,10.60
2024-02-29T12:19:16.790Z,10.60
2024-02-29T12:21:49.105Z,10.70
2024-02-29T12:24:17.272Z,10.70
2024-02-29T12:26:50.843Z,10.70
2024-02-29T12:29:20.044Z,10.80
2024-02-29T12:31:49.115Z,10.80
2024-02-29T12:34:19.664Z,10.80
2024-02-29T12:36:49.243Z,10.70
2024-02-29T12:39:21.765Z,10.70
2024-02-29T12:42:03.734Z,10.70
2024-02-29T12:45:03.175Z,10.70
2024-02-29T12:47:45.865Z,10.70
2024-02-29T12:50:26.391Z,10.80
2024-02-29T12:52:58.526Z,10.90
2024-02-29T12:55:27.498Z,11.00
2024-02-29T12:57:57.852Z,11.10
2024-02-29T13:00:32.711Z,11.10
2024-02-29T13:03:10.262Z,11.10
2024-02-29T13:05:43.231Z,11.20
2024-02-29T13:08:24.296Z,11.10
2024-02-29T13:10:53.180Z,11.10
2024-02-29T13:13:23.520Z,11.00
2024-02-29T13:15:54.258Z,10.90
2024-02-29T13:18:25.024Z,10.90
2024-02-29T13:20:54.100Z,10.80
2024-02-29T13:23:22.956Z,10.90
2024-02-29T13:25:52.924Z,11.00
2024-02-29T13:28:23.471Z,11.00
2024-02-29T13:30:52.322Z,11.10
2024-02-29T13:33:21.354Z,11.20
2024-02-29T13:35:50.935Z,11.20
2024-02-29T13:38:19.957Z,11.10
2024-02-29T13:40:48.964Z,11.10
2024-02-29T13:43:17.812Z,11.10
2024-02-29T13:45:48.366Z,11.00
2024-02-29T13:48:18.149Z,10.90
2024-02-29T13:50:47.176Z,10.90
2024-02-29T13:53:15.997Z,10.90
2024-02-29T13:55:48.226Z,10.90
2024-02-29T13:58:17.732Z,10.90
2024-02-29T14:00:48.163Z,10.90
2024-02-29T14:03:17.420Z,10.80
2024-02-29T14:05:46.627Z,10.90
2024-02-29T14:08:15.737Z,10.90
2024-02-29T14:10:44.610Z,11.00
2024-02-29T14:13:14.057Z,11.10
2024-02-29T14:15:43.011Z,11.10
2024-02-29T14:18:14.896Z,11.10
2024-02-29T14:20:44.014Z,11.20
2024-02-29T14:23:12.953Z,11.20
2024-02-29T14:25:41.939Z,11.20
2024-02-29T14:28:10.986Z,11.20
2024-02-29T14:30:39.924Z,11.10
2024-02-29T14:33:09.074Z,11.10
2024-02-29T14:35:39.496Z,11.00
2024-02-29T14:38:11.991Z,11.00
2024-02-29T14:40:40.923Z,11.00
2024-02-29T14:43:10.271Z,10.90
2024-02-29T14:45:39.291Z,10.90
2024-02-29T14:48:09.163Z,10.90
2024-02-29T14:50:41.093Z,10.90
2024-02-29T14:53:10.434Z,10.90
2024-02-29T14:55:39.333Z,10.80
2024-02-29T14:58:08.317Z,10.80
2024-02-29T15:00:37.328Z,10.70
2024-02-29T15:03:06.583Z,10.70
2024-02-29T15:05:36.245Z,10.70
2024-02-29T15:08:11.324Z,10.70
2024-02-29T15:10:40.153Z,10.70
2024-02-29T15:13:09.157Z,10.70
2024-02-29T15:15:38.074Z,10.70
2024-02-29T15:18:07.539Z,10.70
2024-02-29T15:20:36.545Z,10.60
2024-02-29T15:23:07.163Z,10.60
2024-02-29T15:25:36.029Z,10.50
2024-02-29T15:28:11.254Z,10.50
2024-02-29T15:30:40.238Z,10.50
2024-02-29T15:33:09.225Z,10.50
2024-02-29T15:35:38.104Z,10.50
2024-02-29T15:38:09.015Z,10.50
2024-02-29T15:40:38.098Z,10.50
2024-02-29T15:43:06.994Z,10.50
2024-02-29T15:45:35.859Z,10.50
2024-02-29T15:48:05.356Z,10.40
2024-02-29T15:50:34.267Z,10.50
2024-02-29T15:53:03.684Z,10.40
2024-02-29T15:55:34.359Z,10.40
2024-02-29T15:58:09.139Z,10.30
2024-02-29T16:00:38.301Z,10.30
2024-02-29T16:03:07.991Z,10.20
2024-02-29T16:05:37.006Z,10.20
2024-02-29T16:08:10.536Z,10.20
2024-02-29T16:10:41.082Z,10.20
2024-02-29T16:13:11.855Z,10.20
2024-02-29T16:15:41.172Z,10.20
2024-02-29T16:18:12.296Z,10.20
2024-02-29T16:20:41.419Z,10.20
2024-02-29T16:23:10.775Z,10.10
2024-02-29T16:25:43.552Z,10.10
2024-02-29T16:28:19.718Z,10.10
2024-02-29T16:30:51.619Z,10.10
2024-02-29T16:33:27.189Z,10.00
2024-02-29T16:35:56.801Z,10.00
2024-02-29T16:38:30.247Z,10.00
2024-02-29T16:41:01.617Z,10.00
2024-02-29T16:43:31.173Z,10.00
2024-02-29T16:46:02.625Z,10.00
2024-02-29T16:48:36.256Z,9.90
2024-02-29T16:51:05.917Z,9.90
2024-02-29T16:53:36.542Z,9.90
2024-02-29T16:56:23.105Z,9.80
2024-02-29T16:59:11.620Z,9.90
2024-02-29T17:02:02.475Z,9.90
2024-02-29T17:04:39.928Z,9.80
2024-02-29T17:07:37.698Z,9.60
2024-02-29T17:10:26.018Z,9.70
2024-02-29T17:13:54.915Z,9.80
2024-02-29T17:16:27.222Z,9.70
2024-02-29T17:19:01.556Z,9.80
2024-02-29T17:24:47.516Z,9.90
2024-02-29T17:27:43.638Z,9.80
2024-02-29T17:30:32.955Z,9.80
2024-02-29T17:34:06.750Z,9.90
2024-02-29T17:37:09.908Z,9.80
2024-02-29T17:39:39.644Z,9.80
2024-02-29T17:43:18.169Z,9.80
2024-02-29T17:46:58.361Z,9.80
2024-02-29T17:49:47.003Z,9.80
2024-02-29T17:52:16.457Z,9.70
2024-02-29T17:54:46.280Z,9.70
2024-02-29T17:57:15.843Z,9.70
2024-02-29T18:00:22.243Z,9.70
2024-02-29T18:02:53.749Z,9.80
2024-02-29T18:05:27.304Z,9.70
2024-02-29T18:08:02.439Z,9.60
2024-02-29T18:10:32.975Z,9.60
2024-02-29T18:15:57.263Z,9.60
2024-02-29T18:18:35.371Z,9.60
2024-02-29T18:21:30.550Z,9.60
2024-02-29T18:24:04.118Z,9.60
2024-02-29T18:26:39.433Z,9.60
2024-02-29T18:29:18.330Z,9.60
2024-02-29T18:31:48.912Z,9.60
2024-02-29T18:34:20.587Z,9.50
2024-02-29T18:36:51.432Z,9.50
2024-02-29T18:46:28.655Z,9.40
2024-02-29T18:48:57.992Z,9.60
2024-02-29T18:58:31.518Z,9.50
2024-02-29T19:01:00.745Z,9.50
2024-02-29T19:03:29.853Z,9.40
2024-02-29T19:06:00.516Z,9.50
2024-02-29T19:08:29.751Z,9.40
2024-02-29T19:11:01.128Z,9.40
2024-02-29T19:13:33.807Z,9.50
2024-02-29T19:16:03.127Z,9.40
2024-02-29T19:18:32.062Z,9.40
2024-02-29T19:21:02.116Z,9.40
2024-02-29T19:23:31.203Z,9.40
2024-02-29T19:26:00.996Z,9.40
2024-02-29T19:28:34.269Z,9.40
2024-02-29T19:31:06.074Z,9.40
2024-02-29T19:33:39.584Z,9.40
2024-02-29T19:36:12.501Z,9.30
2024-02-29T19:38:41.904Z,9.40
2024-02-29T19:41:11.135Z,9.40
2024-02-29T19:43:42.613Z,9.50
2024-02-29T19:46:13.428Z,9.50
2024-02-29T19:48:46.039Z,9.40
2024-02-29T19:51:20.905Z,9.50
2024-02-29T19:53:50.257Z,9.50
2024-02-29T19:56:19.495Z,9.50
2024-02-29T19:58:50.361Z,9.50
2024-02-29T20:01:21.137Z,9.50
2024-02-29T20:03:50.853Z,9.50
2024-02-29T20:06:44.641Z,9.60
2024-02-29T20:09:13.821Z,9.60
2024-02-29T20:11:43.704Z,9.50
2024-02-29T20:14:16.797Z,9.50
2024-02-29T20:16:53.724Z,9.50
2024-02-29T20:19:28.634Z,9.50
2024-02-29T20:21:59.368Z,9.50
2024-02-29T20:24:33.403Z,9.50
2024-02-29T20:27:07.100Z,9.50
2024-02-29T20:29:45.027Z,9.50
2024-02-29T20:32:16.404Z,9.60
2024-02-29T20:34:45.517Z,9.50
2024-02-29T20:37:36.764Z,9.60
2024-02-29T20:40:11.483Z,9.50
2024-02-29T20:42:41.052Z,9.50
2024-02-29T20:45:16.186Z,9.50
2024-02-29T20:47:47.397Z,9.50
2024-02-29T20:50:16.902Z,9.50
2024-02-29T20:52:48.284Z,9.50
2024-02-29T20:55:17.769Z,9.50
2024-02-29T20:57:50.378Z,9.40
2024-02-29T21:00:22.012Z,9.40
2024-02-29T21:02:51.740Z,9.50
2024-02-29T21:05:23.787Z,9.70
2024-02-29T21:07:55.105Z,9.50
2024-02-29T21:10:24.776Z,9.50
2024-02-29T21:12:57.483Z,9.50
2024-02-29T21:15:28.665Z,9.50
2024-02-29T21:17:58.164Z,9.50
2024-02-29T21:20:28.236Z,9.50
2024-02-29T21:22:57.536Z,9.60
2024-02-29T21:25:27.067Z,9.50
2024-02-29T21:27:56.362Z,9.50
2024-02-29T21:30:27.496Z,9.50
2024-02-29T21:32:56.877Z,9.50
2024-02-29T21:35:29.212Z,9.60
2024-02-29T21:37:58.750Z,9.60
2024-02-29T21:40:29.732Z,9.60
2024-02-29T21:43:01.206Z,9.60
2024-02-29T21:45:32.521Z,9.60
2024-02-29T21:48:02.049Z,9.60
2024-02-29T21:50:36.435Z,9.60
2024-02-29T21:53:07.916Z,9.60
2024-02-29T21:55:39.488Z,9.50
2024-02-29T21:58:09.258Z,9.60
2024-02-29T22:00:40.401Z,9.60
2024-02-29T22:03:09.907Z,9.60
2024-02-29T22:05:41.813Z,9.60
2024-02-29T22:08:11.570Z,9.70
2024-02-29T22:10:42.881Z,9.60
2024-02-29T22:13:14.368Z,9.60
2024-02-29T22:15:45.388Z,9.60
2024-02-29T22:18:15.695Z,9.60
2024-02-29T22:20:47.369Z,9.60
2024-02-29T22:23:16.612Z,9.60
2024-02-29T22:25:45.775Z,9.60
2024-02-29T22:28:18.442Z,9.60
2024-02-29T22:30:50.529Z,9.60
2024-02-29T22:33:19.910Z,9.60
2024-02-29T22:35:49.134Z,9.70
2024-02-29T22:38:18.343Z,9.70
2024-02-29T22:40:48.046Z,9.60
2024-02-29T22:43:21.493Z,9.70
2024-02-29T22:45:52.382Z,9.70
2024-02-29T22:48:24.184Z,9.70
2024-02-29T22:50:53.223Z,9.70
2024-02-29T22:53:22.923Z,9.60
2024-02-29T22:55:52.353Z,9.70
2024-02-29T22:58:21.893Z,9.70
2024-02-29T23:00:53.660Z,9.70
2024-02-29T23:03:23.934Z,9.80
2024-02-29T23:05:53.630Z,9.70
2024-02-29T23:08:22.995Z,9.70
2024-02-29T23:10:52.412Z,9.70
2024-02-29T23:13:25.022Z,9.70
2024-02-29T23:15:56.159Z,9.70
2024-02-29T23:18:25.603Z,9.70
2024-02-29T23:20:54.494Z,9.70
2024-02-29T23:23:23.460Z,9.70
2024-02-29T23:25:52.728Z,9.70
2024-02-29T23:28:21.637Z,9.70
2024-02-29T23:30:50.925Z,9.70
2024-02-29T23:33:21.307Z,9.80
2024-02-29T23:35:50.244Z,9.80
2024-02-29T23:38:19.149Z,9.90
2024-02-29T23:40:48.118Z,9.80
2024-02-29T23:43:17.091Z,9.80
2024-02-29T23:45:46.142Z,9.90
2024-02-29T23:48:15.616Z,9.90
2024-02-29T23:50:46.206Z,9.80
2024-02-29T23:53:15.126Z,9.80
2024-02-29T23:55:44.270Z,9.80
2024-02-29T23:58:13.217Z,9.80
